createdAt,value
2023-05-09T00:01:17.574Z,101457.69
2023-05-09T00:05:29.742Z,101456.38
2023-05-09T00:09:41.290Z,101416.53
2023-05-09T00:13:53.245Z,101457.94
2023-05-09T00:18:04.846Z,101438.03
2023-05-09T00:22:23.307Z,101406.31
2023-05-09T00:26:34.876Z,101429.63
2023-05-09T00:30:46.400Z,101405.91
2023-05-09T00:34:58.277Z,101428.31
2023-05-09T00:39:09.831Z,101414.41
2023-05-09T00:43:21.963Z,101411.72
2023-05-09T00:47:34.001Z,101406.28
2023-05-09T00:51:46.048Z,101406.28
2023-05-09T00:55:59.889Z,101408.69
2023-05-09T01:00:13.259Z,101405.72
2023-05-09T01:04:25.074Z,101400.84
2023-05-09T01:09:02.969Z,101387.59
2023-05-09T01:13:25.029Z,101391.47
2023-05-09T01:17:49.885Z,101384.41
2023-05-09T01:22:05.964Z,101367.53
2023-05-09T01:26:55.560Z,101370.31
2023-05-09T01:31:08.944Z,101372.13
2023-05-09T01:35:26.220Z,101359.88
2023-05-09T01:39:39.911Z,101360.94
2023-05-09T01:43:53.253Z,101355.47
2023-05-09T01:48:07.000Z,101341.81
2023-05-09T01:52:20.058Z,101352.81
2023-05-09T01:56:32.372Z,101353.13
2023-05-09T02:00:45.314Z,101346.88
2023-05-09T02:04:57.869Z,101337.41
2023-05-09T02:09:10.614Z,101327.88
2023-05-09T02:13:22.232Z,101318.53
2023-05-09T02:17:34.222Z,101319.63
2023-05-09T02:21:45.839Z,101320.03
2023-05-09T02:25:57.796Z,101315.69
2023-05-09T02:30:14.097Z,101302.31
2023-05-09T02:34:25.821Z,101304.38
2023-05-09T02:38:37.480Z,101314.66
2023-05-09T02:42:49.077Z,101310.03
2023-05-09T02:47:02.509Z,101312.75
2023-05-09T02:51:14.124Z,101306.50
2023-05-09T02:55:25.846Z,101280.69
2023-05-09T02:59:37.402Z,101307.56
2023-05-09T03:03:49.082Z,101300.00
2023-05-09T03:08:02.151Z,101288.84
2023-05-09T03:12:13.769Z,101301.34
2023-05-09T03:16:25.552Z,101284.66
2023-05-09T03:20:37.242Z,101275.03
2023-05-09T03:24:49.038Z,101278.16
2023-05-09T03:29:00.647Z,101280.53
2023-05-09T03:33:12.200Z,101282.41
2023-05-09T03:37:26.260Z,101252.69
2023-05-09T03:41:38.837Z,101254.16
2023-05-09T03:45:52.314Z,101255.56
2023-05-09T03:50:04.276Z,101236.69
2023-05-09T03:54:16.756Z,101252.25
2023-05-09T03:58:28.374Z,101248.97
2023-05-09T04:02:42.367Z,101231.88
2023-05-09T04:07:00.994Z,101230.56
2023-05-09T04:11:12.955Z,101223.44
2023-05-09T04:15:27.903Z,101224.81
2023-05-09T04:19:41.716Z,101225.34
2023-05-09T04:23:53.433Z,101225.34
2023-05-09T04:28:11.512Z,101224.50
2023-05-09T04:32:23.340Z,101237.25
2023-05-09T04:36:36.219Z,101231.00
2023-05-09T04:40:47.940Z,101225.00
2023-05-09T04:45:00.154Z,101219.09
2023-05-09T04:49:13.421Z,101212.03
2023-05-09T04:53:28.165Z,101209.06
2023-05-09T04:57:40.833Z,101205.84
2023-05-09T05:01:54.810Z,101210.50
2023-05-09T05:06:06.640Z,101207.88
2023-05-09T05:10:19.998Z,101217.16
2023-05-09T05:14:35.944Z,101203.34
2023-05-09T05:18:49.584Z,101189.28
2023-05-09T05:23:02.654Z,101187.38
2023-05-09T05:27:14.323Z,101188.03
2023-05-09T05:31:26.217Z,101180.81
2023-05-09T05:35:37.924Z,101174.00
2023-05-09T05:39:51.525Z,101171.56
2023-05-09T05:44:03.714Z,101164.16
2023-05-09T05:48:15.610Z,101163.59
2023-05-09T05:52:27.498Z,101161.28
2023-05-09T05:56:39.470Z,101146.88
2023-05-09T06:00:55.092Z,101142.56
2023-05-09T06:05:07.144Z,101131.94
2023-05-09T06:09:19.176Z,101132.97
2023-05-09T06:13:30.765Z,101132.16
2023-05-09T06:17:47.230Z,101115.84
2023-05-09T06:21:58.875Z,101126.72
2023-05-09T06:26:12.224Z,101126.47
2023-05-09T06:30:26.772Z,101125.16
2023-05-09T06:34:38.818Z,101115.44
2023-05-09T06:38:50.472Z,101104.06
2023-05-09T06:43:02.151Z,101089.19
2023-05-09T06:47:13.717Z,101105.63
2023-05-09T06:51:27.155Z,101090.72
2023-05-09T06:55:38.873Z,101091.78
2023-05-09T06:59:50.642Z,101087.34
2023-05-09T07:04:02.243Z,101083.75
2023-05-09T07:08:13.853Z,101074.13
2023-05-09T07:12:25.407Z,101071.31
2023-05-09T07:16:37.757Z,101062.06
2023-05-09T07:20:49.618Z,101055.38
2023-05-09T07:25:01.175Z,101055.72
2023-05-09T07:29:12.832Z,101051.94
2023-05-09T07:33:25.039Z,101042.19
2023-05-09T07:37:36.767Z,101040.28
2023-05-09T07:41:48.851Z,101034.53
2023-05-09T07:46:00.816Z,101039.72
2023-05-09T07:50:12.526Z,101020.38
2023-05-09T07:54:24.164Z,101027.72
2023-05-09T07:58:36.056Z,101022.00
2023-05-09T08:02:47.676Z,101019.56
2023-05-09T08:06:59.641Z,101012.78
2023-05-09T08:11:11.273Z,101003.25
2023-05-09T08:15:23.341Z,100996.16
2023-05-09T08:19:35.074Z,100997.78
2023-05-09T08:23:46.701Z,100987.94
2023-05-09T08:27:58.565Z,100982.78
2023-05-09T08:32:10.184Z,100993.41
2023-05-09T08:36:21.808Z,100974.09
2023-05-09T08:40:37.542Z,100973.28
2023-05-09T08:44:49.291Z,100975.47
2023-05-09T08:49:01.690Z,100964.31
2023-05-09T08:53:13.832Z,100958.88
2023-05-09T08:57:27.362Z,100949.06
2023-05-09T09:01:39.980Z,100947.16
2023-05-09T09:05:53.926Z,100947.44
2023-05-09T09:10:07.613Z,100954.00
2023-05-09T09:14:25.573Z,100958.34
2023-05-09T09:18:39.260Z,100946.09
2023-05-09T09:22:59.254Z,100952.59
2023-05-09T09:27:10.868Z,100946.59
2023-05-09T09:31:24.856Z,100941.44
2023-05-09T09:35:40.394Z,100943.59
2023-05-09T09:39:56.890Z,100935.44
2023-05-09T09:44:11.863Z,100940.91
2023-05-09T09:48:25.669Z,100939.78
2023-05-09T09:52:37.476Z,100931.38
2023-05-09T09:56:51.880Z,100922.16
2023-05-09T10:01:08.533Z,100923.25
2023-05-09T10:05:21.941Z,100915.34
2023-05-09T10:09:35.500Z,100912.81
2023-05-09T10:13:47.355Z,100905.94
2023-05-09T10:18:01.688Z,100916.47
2023-05-09T10:22:16.554Z,100911.28
2023-05-09T10:26:32.312Z,100906.41
2023-05-09T10:30:55.614Z,100896.09
2023-05-09T10:35:10.471Z,100902.06
2023-05-09T10:39:22.301Z,100891.16
2023-05-09T10:43:35.469Z,100873.94
2023-05-09T10:47:50.086Z,100875.63
2023-05-09T10:52:01.884Z,100874.59
2023-05-09T10:56:22.796Z,100867.84
2023-05-09T11:00:34.446Z,100870.03
2023-05-09T11:04:46.607Z,100875.00
2023-05-09T11:08:58.237Z,100868.22
2023-05-09T11:13:09.977Z,100872.88
2023-05-09T11:17:21.838Z,100865.53
2023-05-09T11:21:36.664Z,100862.31
2023-05-09T11:25:49.343Z,100855.19
2023-05-09T11:30:05.287Z,100849.50
2023-05-09T11:34:20.017Z,100848.41
2023-05-09T11:38:42.030Z,100856.56
2023-05-09T11:42:58.043Z,100842.97
2023-05-09T11:47:10.745Z,100847.56
2023-05-09T11:51:22.328Z,100817.91
2023-05-09T11:55:38.047Z,100820.09
2023-05-09T11:59:49.753Z,100813.31
2023-05-09T12:04:02.246Z,100818.75
2023-05-09T12:08:15.433Z,100792.91
2023-05-09T12:12:27.058Z,100798.09
2023-05-09T12:16:45.828Z,100804.59
2023-05-09T12:20:57.419Z,100801.34
2023-05-09T12:25:10.649Z,100794.25
2023-05-09T12:29:23.726Z,100773.59
2023-05-09T12:33:38.430Z,100789.94
2023-05-09T12:37:58.456Z,100782.88
2023-05-09T12:42:13.602Z,100770.09
2023-05-09T12:46:25.579Z,100777.97
2023-05-09T12:50:37.249Z,100757.03
2023-05-09T12:54:49.062Z,100761.38
2023-05-09T12:59:00.731Z,100766.56
2023-05-09T13:03:24.935Z,100767.38
2023-05-09T13:08:01.788Z,100777.69
2023-05-09T13:12:13.944Z,100751.06
2023-05-09T13:16:25.565Z,100750.78
2023-05-09T13:20:37.425Z,100751.06
2023-05-09T13:24:48.990Z,100738.28
2023-05-09T13:29:00.818Z,100736.38
2023-05-09T13:33:24.517Z,100731.22
2023-05-09T13:37:37.716Z,100727.41
2023-05-09T13:41:51.220Z,100727.13
2023-05-09T13:46:03.378Z,100720.88
2023-05-09T13:50:15.223Z,100717.34
2023-05-09T13:54:29.492Z,100706.19
2023-05-09T13:58:41.141Z,100700.47
2023-05-09T14:02:52.848Z,100706.75
2023-05-09T14:07:04.866Z,100698.88
2023-05-09T14:11:16.506Z,100693.44
2023-05-09T14:15:29.451Z,100690.16
2023-05-09T14:19:41.042Z,100685.78
2023-05-09T14:23:52.520Z,100687.44
2023-05-09T14:28:04.414Z,100682.00
2023-05-09T14:32:16.037Z,100678.47
2023-05-09T14:36:28.598Z,100675.75
2023-05-09T14:40:40.145Z,100660.53
2023-05-09T14:44:51.862Z,100664.31
2023-05-09T14:49:04.281Z,100665.94
2023-05-09T14:53:16.376Z,100655.13
2023-05-09T14:57:29.902Z,100651.84
2023-05-09T15:01:41.806Z,100651.31
2023-05-09T15:05:53.565Z,100626.88
2023-05-09T15:10:05.784Z,100625.53
2023-05-09T15:14:17.408Z,100631.47
2023-05-09T15:18:37.255Z,100631.47
2023-05-09T15:22:49.956Z,100615.19
2023-05-09T15:27:02.292Z,100618.72
2023-05-09T15:31:14.436Z,100614.41
2023-05-09T15:35:27.383Z,100616.81
2023-05-09T15:39:43.622Z,100626.84
2023-05-09T15:43:55.371Z,100606.47
2023-05-09T15:48:07.058Z,100601.88
2023-05-09T15:52:18.923Z,100607.56
2023-05-09T15:56:30.575Z,100597.53
2023-05-09T16:00:42.681Z,100594.53
2023-05-09T16:04:54.495Z,100575.81
2023-05-09T16:09:21.555Z,100578.53
2023-05-09T16:13:35.730Z,100581.50
2023-05-09T16:17:47.658Z,100573.38
2023-05-09T16:21:59.239Z,100566.03
2023-05-09T16:26:10.880Z,100544.03
2023-05-09T16:30:22.405Z,100553.28
2023-05-09T16:34:35.373Z,100547.81
2023-05-09T16:39:16.076Z,100552.97
2023-05-09T16:43:27.696Z,100533.16
2023-05-09T16:47:39.313Z,100547.53
2023-05-09T16:51:50.924Z,100534.50
2023-05-09T16:56:03.703Z,100532.06
2023-05-09T17:00:16.164Z,100530.16
2023-05-09T17:04:27.937Z,100520.94
2023-05-09T17:08:39.511Z,100524.47
2023-05-09T17:12:51.236Z,100503.59
2023-05-09T17:17:02.853Z,100520.44
2023-05-09T17:21:15.283Z,100515.28
2023-05-09T17:25:26.850Z,100512.53
2023-05-09T17:29:38.359Z,100516.34
2023-05-09T17:33:49.979Z,100477.00
2023-05-09T17:38:01.520Z,100517.19
2023-05-09T17:42:13.122Z,100510.66
2023-05-09T17:46:24.962Z,100509.31
2023-05-09T17:50:36.631Z,100499.28
2023-05-09T17:54:48.280Z,100507.94
2023-05-09T17:58:59.882Z,100496.25
2023-05-09T18:03:11.554Z,100514.16
2023-05-09T18:07:23.211Z,100490.56
2023-05-09T18:11:35.120Z,100503.88
2023-05-09T18:15:46.950Z,100513.09
2023-05-09T18:19:58.491Z,100510.63
2023-05-09T18:24:10.525Z,100516.84
2023-05-09T18:28:25.180Z,100502.47
2023-05-09T18:32:36.859Z,100510.06
2023-05-09T18:36:48.617Z,100506.25
2023-05-09T18:41:01.462Z,100516.00
2023-05-09T18:45:13.423Z,100493.19
2023-05-09T18:49:26.234Z,100507.84
2023-05-09T18:53:38.179Z,100508.66
2023-05-09T18:57:49.708Z,100514.09
2023-05-09T19:02:01.256Z,100508.94
2023-05-09T19:06:14.124Z,100483.13
2023-05-09T19:10:25.711Z,100494.81
2023-05-09T19:14:40.076Z,100505.41
2023-05-09T19:18:54.526Z,100517.31
2023-05-09T19:23:06.217Z,100512.41
2023-05-09T19:27:18.877Z,100508.28
2023-05-09T19:31:31.233Z,100510.75
2023-05-09T19:35:43.385Z,100517.50
2023-05-09T19:39:54.953Z,100522.09
2023-05-09T19:44:09.328Z,100525.34
2023-05-09T19:48:20.954Z,100516.66
2023-05-09T19:52:32.664Z,100522.06
2023-05-09T19:56:44.400Z,100510.94
2023-05-09T20:00:55.926Z,100522.88
2023-05-09T20:05:07.859Z,100518.28
2023-05-09T20:09:20.977Z,100526.16
2023-05-09T20:13:32.599Z,100521.81
2023-05-09T20:17:44.534Z,100513.09
2023-05-09T20:21:56.344Z,100523.72
2023-05-09T20:26:07.967Z,100520.19
2023-05-09T20:30:19.692Z,100518.81
2023-05-09T20:34:31.359Z,100514.47
2023-05-09T20:38:42.937Z,100519.63
2023-05-09T20:42:54.490Z,100523.44
2023-05-09T20:47:06.226Z,100515.03
2023-05-09T20:51:17.831Z,100514.50
2023-05-09T20:55:29.424Z,100514.47
2023-05-09T20:59:41.002Z,100520.97
2023-05-09T21:03:52.685Z,100523.41
2023-05-09T21:08:04.471Z,100516.06
2023-05-09T21:12:16.273Z,100520.34
2023-05-09T21:16:28.382Z,100514.63
2023-05-09T21:20:39.999Z,100517.00
2023-05-09T21:24:51.612Z,100520.44
2023-05-09T21:29:03.226Z,100520.91
2023-05-09T21:33:14.780Z,100514.63
2023-05-09T21:37:27.529Z,100512.13
2023-05-09T21:41:40.464Z,100508.47
2023-05-09T21:45:52.019Z,100516.84
2023-05-09T21:50:04.248Z,100511.84
2023-05-09T21:54:15.814Z,100515.63
2023-05-09T21:58:27.404Z,100504.47
2023-05-09T22:02:39.220Z,100518.50
2023-05-09T22:06:50.792Z,100516.81
2023-05-09T22:11:02.296Z,100515.72
2023-05-09T22:15:13.893Z,100511.94
2023-05-09T22:19:25.457Z,100514.66
2023-05-09T22:23:36.984Z,100510.84
2023-05-09T22:27:51.142Z,100502.47
2023-05-09T22:32:03.446Z,100517.06
2023-05-09T22:36:16.571Z,100518.38
2023-05-09T22:40:28.722Z,100511.00
2023-05-09T22:44:40.255Z,100505.03
2023-05-09T22:48:51.835Z,100507.50
2023-05-09T22:53:03.602Z,100506.94
2023-05-09T22:57:17.742Z,100509.13
2023-05-09T23:01:29.380Z,100510.50
2023-05-09T23:05:41.448Z,100511.91
2023-05-09T23:09:53.001Z,100510.50
2023-05-09T23:14:04.614Z,100508.06
2023-05-09T23:18:16.236Z,100515.34
2023-05-09T23:22:27.941Z,100502.91
2023-05-09T23:26:39.461Z,100515.34
2023-05-09T23:30:51.684Z,100514.78
2023-05-09T23:35:03.999Z,100512.09
2023-05-09T23:39:15.605Z,100505.03
2023-05-09T23:43:27.336Z,100510.19
2023-05-09T23:47:38.878Z,100501.53
2023-05-09T23:51:50.467Z,100501.78
2023-05-09T23:56:02.874Z,100486.03
